Time;durP1;ratioP1;P1;durP2;ratioP2;P2;SDS_P1;SDS_P2;PMS_P1;PMS_P2;Temp;Humidity;BMP_temperature;BMP_pressure;BME280_temperature;BME280_humidity;BME280_pressure;Samples;Min_cycle;Max_cycle;Signal;HPM_P1;HPM_P2
2024/01/10 00:01:34;;;;;;;17.67;16.13;;;2.30;3.50;;;;;;5022332;28;20515;-61
2024/01/10 00:04:00;;;;;;;17.93;16.23;;;2.50;3.10;;;;;;5015370;28;20184;-61
2024/01/10 00:06:26;;;;;;;19.60;17.93;;;2.40;2.80;;;;;;5023282;28;20236;-61
2024/01/10 00:08:52;;;;;;;18.97;17.47;;;2.30;3.60;;;;;;5015300;28;20443;-61
2024/01/10 00:11:17;;;;;;;19.43;17.83;;;2.60;2.60;;;;;;5016394;28;20203;-61
2024/01/10 00:13:43;;;;;;;19.10;17.47;;;2.60;2.40;;;;;;5021589;28;20916;-56
2024/01/10 00:16:11;;;;;;;17.73;16.40;;;2.50;2.30;;;;;;5014943;28;20211;-55
2024/01/10 00:18:37;;;;;;;16.97;15.60;;;2.60;2.40;;;;;;5015143;28;20279;-54
2024/01/10 00:21:03;;;;;;;19.83;18.17;;;2.50;3.10;;;;;;5015041;28;20847;-56
2024/01/10 00:23:28;;;;;;;19.00;17.50;;;2.50;2.90;;;;;;5043580;28;21035;-57
2024/01/10 00:25:54;;;;;;;18.90;17.23;;;2.60;2.80;;;;;;5019848;28;20424;-55
2024/01/10 00:28:20;;;;;;;19.47;17.80;;;2.60;2.40;;;;;;5014840;28;20238;-52
2024/01/10 00:30:48;;;;;;;18.07;16.67;;;2.50;2.30;;;;;;5022111;28;20625;-54
2024/01/10 00:33:14;;;;;;;18.43;16.83;;;2.50;3.00;;;;;;5015231;28;20185;-55
2024/01/10 00:35:39;;;;;;;18.43;16.93;;;2.60;2.70;;;;;;5021742;28;20432;-57
2024/01/10 00:38:05;;;;;;;18.33;16.87;;;2.80;2.80;;;;;;5014651;28;20554;-55
2024/01/10 00:40:31;;;;;;;18.43;16.80;;;2.70;2.40;;;;;;5022933;28;20227;-56
2024/01/10 00:42:56;;;;;;;16.17;14.87;;;2.50;2.50;;;;;;5014090;28;20673;-57
2024/01/10 00:45:22;;;;;;;17.93;16.47;;;2.50;2.30;;;;;;5014562;28;20514;-55
2024/01/10 00:47:51;;;;;;;19.33;17.63;;;2.30;2.90;;;;;;5014645;28;20276;-50
2024/01/10 00:50:17;;;;;;;17.77;16.33;;;2.10;2.80;;;;;;5014523;28;20557;-51
2024/01/10 00:52:46;;;;;;;19.07;17.47;;;2.10;3.00;;;;;;5013973;28;20442;-53
2024/01/10 00:55:12;;;;;;;18.47;17.07;;;2.10;3.50;;;;;;5014487;28;20180;-55
2024/01/10 00:57:38;;;;;;;20.33;18.57;;;2.20;3.50;;;;;;5014345;28;20474;-53
2024/01/10 01:00:09;;;;;;;18.27;16.57;;;2.30;3.50;;;;;;5014499;28;20473;-55
2024/01/10 01:02:35;;;;;;;17.50;16.03;;;2.40;3.50;;;;;;5014135;28;20432;-55
2024/01/10 01:05:01;;;;;;;18.03;16.63;;;2.50;3.10;;;;;;5026658;28;20780;-55
2024/01/10 01:07:27;;;;;;;18.03;16.57;;;2.60;3.20;;;;;;5025600;28;20432;-62
2024/01/10 01:09:52;;;;;;;20.00;18.30;;;2.70;2.40;;;;;;5027977;28;20477;-62
2024/01/10 01:12:18;;;;;;;18.43;16.70;;;2.50;3.00;;;;;;5013697;28;20447;-61
2024/01/10 01:14:43;;;;;;;18.07;16.60;;;2.40;3.00;;;;;;5022335;28;20185;-61
2024/01/10 01:17:09;;;;;;;18.57;17.10;;;2.40;3.20;;;;;;5014116;28;20240;-61
2024/01/10 01:19:35;;;;;;;18.50;17.00;;;2.20;3.50;;;;;;5043504;28;20696;-62
2024/01/10 01:22:00;;;;;;;18.90;17.20;;;1.90;4.10;;;;;;5018149;28;20428;-62
2024/01/10 01:24:26;;;;;;;20.37;18.60;;;1.90;3.80;;;;;;5013968;28;20212;-61
2024/01/10 01:26:52;;;;;;;19.63;18.03;;;1.80;3.80;;;;;;5014017;28;20552;-61
2024/01/10 01:29:18;;;;;;;19.30;17.70;;;1.90;3.80;;;;;;5013931;28;20611;-61
2024/01/10 01:31:44;;;;;;;18.60;17.00;;;1.90;4.10;;;;;;5042930;28;20215;-62
2024/01/10 01:34:10;;;;;;;19.23;17.60;;;2.20;4.10;;;;;;5016970;28;20466;-62
2024/01/10 01:36:35;;;;;;;19.63;18.10;;;2.30;3.40;;;;;;5031656;28;20205;-57
2024/01/10 01:39:01;;;;;;;19.60;18.00;;;2.30;3.20;;;;;;5014026;28;20184;-53
2024/01/10 01:41:26;;;;;;;18.33;16.83;;;2.10;3.50;;;;;;5013712;28;20188;-62
2024/01/10 01:43:52;;;;;;;18.70;17.20;;;2.10;3.60;;;;;;5013705;28;20184;-53
2024/01/10 01:46:18;;;;;;;18.87;17.33;;;2.10;3.80;;;;;;5013883;28;20243;-53
2024/01/10 01:48:45;;;;;;;18.80;16.83;;;1.90;4.80;;;;;;5013909;28;20244;-55
2024/01/10 01:51:14;;;;;;;18.40;16.90;;;1.70;4.60;;;;;;5013941;28;20446;-57
2024/01/10 01:53:41;;;;;;;18.50;17.10;;;1.70;4.50;;;;;;5021516;28;20439;-57
2024/01/10 01:56:08;;;;;;;19.20;17.60;;;1.80;4.70;;;;;;5042532;28;20907;-56
2024/01/10 01:58:36;;;;;;;18.30;16.70;;;1.90;4.70;;;;;;5017774;28;20439;-61
2024/01/10 02:01:05;;;;;;;18.43;16.97;;;2.00;4.50;;;;;;5017724;28;20442;-61
2024/01/10 02:03:32;;;;;;;18.67;17.23;;;2.20;4.30;;;;;;5021736;28;20426;-62
2024/01/10 02:05:58;;;;;;;19.57;17.77;;;2.40;3.90;;;;;;5022777;28;20435;-62
2024/01/10 02:08:23;;;;;;;19.40;17.50;;;2.60;3.40;;;;;;5017309;28;20490;-62
2024/01/10 02:10:49;;;;;;;18.27;16.57;;;2.70;3.40;;;;;;5017471;28;20184;-61
2024/01/10 02:13:16;;;;;;;17.83;16.43;;;2.40;4.60;;;;;;5016886;28;20617;-62
2024/01/10 02:15:42;;;;;;;18.37;16.93;;;2.30;4.30;;;;;;5028106;28;20180;-61
2024/01/10 02:18:12;;;;;;;19.40;17.80;;;2.40;4.30;;;;;;5021329;28;20518;-61
2024/01/10 02:20:38;;;;;;;19.73;18.03;;;2.20;4.20;;;;;;5025504;28;20458;-61
2024/01/10 02:23:03;;;;;;;20.70;18.97;;;2.20;4.90;;;;;;5016801;28;20990;-62
2024/01/10 02:25:29;;;;;;;19.50;17.90;;;2.30;4.40;;;;;;5017275;28;20427;-61
2024/01/10 02:27:55;;;;;;;18.57;16.97;;;2.50;4.20;;;;;;5017265;28;20228;-62
2024/01/10 02:30:20;;;;;;;18.07;16.67;;;2.60;4.30;;;;;;5024169;28;20612;-62
2024/01/10 02:32:46;;;;;;;18.50;17.00;;;2.70;4.20;;;;;;5016589;28;20184;-62
2024/01/10 02:35:11;;;;;;;18.13;16.53;;;2.80;4.10;;;;;;5017218;28;20541;-61
2024/01/10 02:37:37;;;;;;;18.40;16.87;;;2.70;3.40;;;;;;5016915;28;20215;-62
2024/01/10 02:40:03;;;;;;;18.93;17.40;;;2.80;3.60;;;;;;5034819;28;20235;-61
2024/01/10 02:42:30;;;;;;;19.33;17.73;;;3.00;3.40;;;;;;5044410;28;20585;-62
2024/01/10 02:44:56;;;;;;;20.00;18.40;;;3.10;3.20;;;;;;5022778;28;20826;-62
2024/01/10 02:47:21;;;;;;;18.53;16.93;;;3.20;3.70;;;;;;5016780;28;20465;-60
2024/01/10 02:49:47;;;;;;;19.63;18.03;;;3.20;3.10;;;;;;5016989;28;20477;-55
2024/01/10 02:52:12;;;;;;;18.17;16.57;;;3.20;2.70;;;;;;5016406;28;20199;-56
2024/01/10 02:54:38;;;;;;;19.43;17.73;;;3.30;2.80;;;;;;5016569;28;20188;-56
2024/01/10 02:57:04;;;;;;;19.93;18.23;;;3.20;2.80;;;;;;5000401;28;20212;-57
2024/01/10 02:59:29;;;;;;;18.67;17.03;;;3.00;2.60;;;;;;5016687;28;20268;-52
2024/01/10 03:01:55;;;;;;;18.47;16.97;;;2.60;3.60;;;;;;5025677;28;20266;-51
2024/01/10 03:04:20;;;;;;;19.63;18.03;;;2.20;4.40;;;;;;5018916;28;20189;-51
2024/01/10 03:06:46;;;;;;;18.97;17.37;;;2.20;4.80;;;;;;5015536;28;20192;-55
2024/01/10 03:09:12;;;;;;;18.53;16.93;;;2.20;4.90;;;;;;5016553;28;20275;-56
2024/01/10 03:11:37;;;;;;;18.73;17.10;;;2.10;4.80;;;;;;5016011;28;20200;-55
2024/01/10 03:14:46;;;;;;;19.40;17.90;;;2.10;5.00;;;;;;5021166;28;20656;-54
2024/01/10 03:17:12;;;;;;;21.17;19.27;;;2.30;5.00;;;;;;5019597;28;20208;-57
2024/01/10 03:19:42;;;;;;;18.10;16.70;;;2.50;4.30;;;;;;5016292;28;20431;-57
2024/01/10 03:22:08;;;;;;;19.60;17.90;;;2.40;4.20;;;;;;5015568;28;20235;-56
2024/01/10 03:24:34;;;;;;;17.83;16.40;;;2.10;5.00;;;;;;5016090;28;20522;-56
2024/01/10 03:26:59;;;;;;;18.93;17.43;;;1.80;5.40;;;;;;5016093;28;20314;-55
2024/01/10 03:29:25;;;;;;;18.83;17.23;;;1.70;5.70;;;;;;5015915;28;20441;-56
2024/01/10 03:31:51;;;;;;;17.97;16.40;;;1.50;6.00;;;;;;5015565;28;20184;-56
2024/01/10 03:34:17;;;;;;;20.13;18.30;;;1.60;6.00;;;;;;5033598;28;20617;-55
2024/01/10 03:36:43;;;;;;;20.90;19.13;;;1.70;5.70;;;;;;5015890;28;20204;-56
2024/01/10 03:39:09;;;;;;;19.57;17.97;;;1.70;5.40;;;;;;5015819;28;20424;-57
2024/01/10 03:41:35;;;;;;;19.10;17.60;;;1.70;5.30;;;;;;5015335;28;20211;-55
2024/01/10 03:44:00;;;;;;;18.87;17.27;;;1.90;5.30;;;;;;5015932;28;20458;-51
2024/01/10 03:46:26;;;;;;;21.23;19.53;;;2.10;5.10;;;;;;5033369;28;20188;-53
2024/01/10 03:48:52;;;;;;;20.47;18.77;;;2.10;5.20;;;;;;5015915;28;20645;-53
2024/01/10 03:51:18;;;;;;;19.90;18.30;;;1.90;5.60;;;;;;5015053;28;20271;-55
2024/01/10 03:53:49;;;;;;;20.10;18.57;;;1.80;5.80;;;;;;5023428;28;20424;-57
2024/01/10 03:56:15;;;;;;;21.00;19.17;;;1.80;6.10;;;;;;5022568;28;20431;-53
2024/01/10 03:58:40;;;;;;;21.80;20.00;;;2.00;5.70;;;;;;5015895;28;20487;-54
2024/01/10 04:01:09;;;;;;;20.93;19.33;;;2.00;5.70;;;;;;5020247;28;20180;-56
2024/01/10 04:03:35;;;;;;;19.80;18.20;;;2.00;5.40;;;;;;5014829;28;20181;-54
2024/01/10 04:06:02;;;;;;;21.17;19.47;;;2.00;5.60;;;;;;5015533;28;20424;-55
2024/01/10 04:08:28;;;;;;;21.23;19.43;;;2.00;5.50;;;;;;5015354;28;20428;-54
2024/01/10 04:10:54;;;;;;;22.20;20.30;;;1.80;6.10;;;;;;5025065;28;21006;-55
2024/01/10 04:13:19;;;;;;;21.77;19.97;;;1.90;6.30;;;;;;5017784;28;20212;-54
2024/01/10 04:15:45;;;;;;;21.33;19.67;;;2.00;5.60;;;;;;5015322;28;20423;-55
2024/01/10 04:18:10;;;;;;;22.33;20.37;;;2.00;5.80;;;;;;5014599;28;20251;-54
2024/01/10 04:20:36;;;;;;;21.93;20.23;;;1.90;6.40;;;;;;5032798;28;20180;-56
2024/01/10 04:23:02;;;;;;;23.23;21.23;;;1.80;6.60;;;;;;5014833;28;20648;-61
2024/01/10 04:25:28;;;;;;;21.50;19.70;;;2.10;6.70;;;;;;5015096;28;20177;-61
2024/01/10 04:27:53;;;;;;;22.60;20.80;;;1.90;6.40;;;;;;5041069;28;20430;-62
2024/01/10 04:30:19;;;;;;;22.03;19.90;;;2.00;6.80;;;;;;4998577;28;20231;-61
2024/01/10 04:32:44;;;;;;;22.30;20.50;;;2.20;6.20;;;;;;5022558;28;20239;-61
2024/01/10 04:35:10;;;;;;;22.30;20.50;;;2.20;5.90;;;;;;5014857;28;20189;-61
2024/01/10 04:37:36;;;;;;;22.57;20.87;;;1.90;6.30;;;;;;5014706;28;20205;-61
2024/01/10 04:40:02;;;;;;;23.00;21.10;;;2.00;6.90;;;;;;5014743;28;20236;-61
2024/01/10 04:42:27;;;;;;;23.57;21.67;;;2.10;6.10;;;;;;5031905;28;20419;-62
2024/01/10 04:44:53;;;;;;;23.43;21.53;;;2.20;6.50;;;;;;5025033;28;20729;-61
2024/01/10 04:47:19;;;;;;;22.77;20.97;;;2.30;6.20;;;;;;5018189;28;20188;-62
2024/01/10 04:49:44;;;;;;;22.47;20.67;;;2.50;6.30;;;;;;5014541;28;20271;-61
2024/01/10 04:52:10;;;;;;;22.27;20.53;;;2.60;5.80;;;;;;5014124;28;20214;-61
2024/01/10 04:54:36;;;;;;;22.27;20.40;;;2.70;5.60;;;;;;5032128;28;20188;-60
2024/01/10 04:57:01;;;;;;;23.43;21.33;;;2.40;5.70;;;;;;5014572;28;20299;-61
2024/01/10 04:59:27;;;;;;;22.57;20.60;;;2.40;6.30;;;;;;5015479;28;20596;-61
2024/01/10 05:01:53;;;;;;;22.20;20.30;;;2.50;5.80;;;;;;5021268;28;20276;-60
2024/01/10 05:04:18;;;;;;;23.47;21.53;;;2.30;5.80;;;;;;5014412;28;20218;-61
2024/01/10 05:06:44;;;;;;;22.80;21.00;;;2.20;6.10;;;;;;5014388;28;20856;-61
2024/01/10 05:09:10;;;;;;;23.30;21.60;;;1.90;6.30;;;;;;5014216;28;20191;-61
2024/01/10 05:11:36;;;;;;;24.87;22.93;;;1.80;6.80;;;;;;5013695;28;20196;-61
2024/01/10 05:14:03;;;;;;;23.93;22.20;;;1.80;6.90;;;;;;5020205;28;20185;-62
2024/01/10 05:16:29;;;;;;;24.13;22.03;;;1.80;6.70;;;;;;5018746;28;20855;-61
2024/01/10 05:18:54;;;;;;;24.10;22.20;;;1.60;7.30;;;;;;5014144;28;20455;-61
2024/01/10 05:21:20;;;;;;;22.97;21.17;;;1.50;7.70;;;;;;5013533;28;20427;-62
2024/01/10 05:23:46;;;;;;;23.83;21.87;;;1.70;7.40;;;;;;5017333;28;20199;-62
2024/01/10 05:26:12;;;;;;;22.60;20.63;;;1.70;7.40;;;;;;5019001;28;20419;-62
2024/01/10 05:28:38;;;;;;;23.17;21.47;;;1.90;7.40;;;;;;5013985;28;20177;-61
2024/01/10 05:31:04;;;;;;;23.00;21.13;;;1.70;7.10;;;;;;5013241;28;20458;-61
2024/01/10 05:33:30;;;;;;;24.37;22.47;;;1.70;7.50;;;;;;5022483;28;20204;-62
2024/01/10 05:35:55;;;;;;;23.87;22.07;;;1.60;7.60;;;;;;5021087;28;20459;-61
2024/01/10 05:38:21;;;;;;;25.40;23.20;;;1.30;7.70;;;;;;5017257;28;20296;-61
2024/01/10 05:40:47;;;;;;;26.47;24.37;;;1.20;8.40;;;;;;5013780;28;20191;-61
2024/01/10 05:43:12;;;;;;;26.63;24.33;;;1.40;8.30;;;;;;5013255;28;20172;-61
2024/01/10 05:45:38;;;;;;;24.70;22.60;;;1.50;8.10;;;;;;5015382;28;20264;-61
2024/01/10 05:48:04;;;;;;;22.90;21.20;;;1.60;8.20;;;;;;5010804;28;20657;-62
2024/01/10 05:50:30;;;;;;;23.90;22.00;;;1.70;7.90;;;;;;5012827;28;20270;-61
2024/01/10 05:52:55;;;;;;;24.83;22.90;;;1.70;7.70;;;;;;5013094;28;20462;-61
2024/01/10 05:55:23;;;;;;;23.33;21.33;;;1.60;7.50;;;;;;5043195;28;20199;-61
2024/01/10 05:57:49;;;;;;;23.37;21.30;;;1.70;7.80;;;;;;5005533;28;20214;-60
2024/01/10 06:00:16;;;;;;;23.17;21.43;;;1.80;7.90;;;;;;5013211;28;20801;-63
2024/01/10 06:02:42;;;;;;;24.00;22.20;;;1.80;7.90;;;;;;5012856;28;20184;-62
2024/01/10 06:05:09;;;;;;;25.70;23.60;;;1.70;8.00;;;;;;5013477;28;20784;-62
2024/01/10 06:07:39;;;;;;;26.17;24.00;;;1.60;8.40;;;;;;5013508;28;20431;-61
2024/01/10 06:10:05;;;;;;;25.33;23.30;;;1.60;8.30;;;;;;5013718;28;20434;-61
2024/01/10 06:12:31;;;;;;;25.30;23.30;;;1.70;8.80;;;;;;5013586;28;20868;-61
2024/01/10 06:14:57;;;;;;;24.20;22.27;;;1.80;8.00;;;;;;5020623;28;20451;-62
2024/01/10 06:17:23;;;;;;;25.53;23.23;;;1.90;7.70;;;;;;5013728;28;20207;-54
2024/01/10 06:19:49;;;;;;;25.80;23.57;;;2.00;7.60;;;;;;5021712;28;20424;-53
2024/01/10 06:22:16;;;;;;;25.23;23.20;;;2.00;7.70;;;;;;5018376;28;20465;-50
2024/01/10 06:24:42;;;;;;;24.30;22.50;;;2.00;7.20;;;;;;5014408;28;20455;-51
2024/01/10 06:27:08;;;;;;;26.23;23.93;;;2.10;7.50;;;;;;5013301;28;20431;-53
2024/01/10 06:29:33;;;;;;;25.50;23.40;;;2.20;7.40;;;;;;5019253;28;20498;-55
2024/01/10 06:32:01;;;;;;;24.60;22.50;;;2.40;7.00;;;;;;5019852;28;20188;-55
2024/01/10 06:34:27;;;;;;;24.23;22.23;;;2.50;7.10;;;;;;5013209;28;20271;-53
2024/01/10 06:36:52;;;;;;;25.60;23.40;;;2.40;7.30;;;;;;5021182;28;20501;-52
2024/01/10 06:39:19;;;;;;;24.30;22.20;;;2.50;6.50;;;;;;5013343;28;20444;-52
2024/01/10 06:41:47;;;;;;;26.20;23.90;;;2.60;6.20;;;;;;5014543;28;20246;-55
2024/01/10 06:44:12;;;;;;;26.20;24.00;;;2.70;6.30;;;;;;5016631;28;20416;-55
2024/01/10 06:46:38;;;;;;;25.20;23.00;;;2.70;6.40;;;;;;5016694;28;20449;-53
2024/01/10 06:49:03;;;;;;;26.73;24.53;;;2.70;6.40;;;;;;5023390;28;20176;-55
2024/01/10 06:51:29;;;;;;;25.40;23.40;;;2.60;6.70;;;;;;5029109;28;20544;-53
2024/01/10 06:54:02;;;;;;;25.80;23.67;;;2.40;7.00;;;;;;5029141;28;20191;-56
2024/01/10 06:56:28;;;;;;;26.47;24.10;;;2.30;7.00;;;;;;5029454;28;20881;-55
2024/01/10 06:58:54;;;;;;;33.17;29.67;;;2.20;7.40;;;;;;5029916;28;20501;-59
2024/01/10 07:01:21;;;;;;;24.37;22.47;;;1.90;7.60;;;;;;5021181;28;20637;-59
2024/01/10 07:03:47;;;;;;;25.80;23.67;;;1.70;8.00;;;;;;5026536;28;20866;-59
2024/01/10 07:06:16;;;;;;;25.13;23.17;;;1.50;8.40;;;;;;5025041;28;20714;-59
2024/01/10 07:08:44;;;;;;;25.27;23.30;;;1.50;8.70;;;;;;5033723;28;20425;-59
2024/01/10 07:11:11;;;;;;;27.30;24.97;;;1.20;9.40;;;;;;5024481;28;20530;-56
2024/01/10 07:13:36;;;;;;;26.47;24.33;;;1.10;10.10;;;;;;5028428;28;20427;-62
2024/01/10 07:16:08;;;;;;;25.10;23.00;;;1.10;9.90;;;;;;5027701;28;20422;-62
2024/01/10 07:18:34;;;;;;;26.13;23.97;;;1.00;10.00;;;;;;5030018;28;20179;-62
2024/01/10 07:20:59;;;;;;;26.93;24.67;;;1.10;10.10;;;;;;5044317;28;20929;-63
2024/01/10 07:23:25;;;;;;;28.03;25.70;;;1.10;9.70;;;;;;5043384;28;20176;-62
2024/01/10 07:25:51;;;;;;;27.70;25.43;;;1.20;9.90;;;;;;5014964;28;20184;-62
2024/01/10 07:28:17;;;;;;;28.00;25.70;;;1.50;9.30;;;;;;5014729;28;20467;-62
2024/01/10 07:30:44;;;;;;;26.40;24.33;;;1.60;9.40;;;;;;5014413;28;20431;-62
2024/01/10 07:33:10;;;;;;;26.60;24.20;;;1.90;8.80;;;;;;5014936;28;20435;-62
2024/01/10 07:35:36;;;;;;;26.97;24.70;;;2.20;8.20;;;;;;5016379;28;20747;-62
2024/01/10 07:38:02;;;;;;;26.20;23.83;;;2.40;7.90;;;;;;5028314;28;20974;-61
2024/01/10 07:40:27;;;;;;;26.57;24.43;;;2.40;8.10;;;;;;5033913;28;20266;-62
2024/01/10 07:42:53;;;;;;;27.23;24.93;;;2.40;8.00;;;;;;5022966;28;20188;-62
2024/01/10 07:45:18;;;;;;;26.73;24.43;;;2.20;7.70;;;;;;5015788;28;20176;-62
2024/01/10 07:47:46;;;;;;;25.47;23.43;;;2.10;8.20;;;;;;5017557;28;20181;-61
2024/01/10 07:50:15;;;;;;;25.93;23.80;;;1.90;8.40;;;;;;5021611;28;20191;-62
2024/01/10 07:52:42;;;;;;;27.07;24.87;;;1.70;8.80;;;;;;5014179;28;20438;-62
2024/01/10 07:55:08;;;;;;;27.23;24.90;;;1.40;9.60;;;;;;5015480;28;20521;-62
2024/01/10 07:57:35;;;;;;;28.00;25.60;;;1.50;9.80;;;;;;5018455;28;20458;-62
2024/01/10 08:00:00;;;;;;;27.47;25.10;;;1.20;10.00;;;;;;5030956;28;20499;-62
2024/01/10 08:02:26;;;;;;;27.17;24.83;;;1.30;10.20;;;;;;5014976;28;20509;-62
2024/01/10 08:04:52;;;;;;;28.30;25.80;;;1.20;10.10;;;;;;5015458;28;20188;-62
2024/01/10 08:07:19;;;;;;;26.67;24.47;;;1.50;9.60;;;;;;5015474;28;20652;-62
2024/01/10 08:09:45;;;;;;;27.00;24.80;;;1.50;9.50;;;;;;5015064;28;20788;-61
2024/01/10 08:12:11;;;;;;;27.67;25.37;;;1.70;9.60;;;;;;5014711;28;20445;-62
2024/01/10 08:14:37;;;;;;;27.37;25.00;;;1.70;9.20;;;;;;5032791;28;20176;-62
2024/01/10 08:17:03;;;;;;;26.97;24.67;;;1.60;9.30;;;;;;5022315;28;20527;-63
2024/01/10 08:19:29;;;;;;;27.63;25.47;;;1.70;9.40;;;;;;5015386;28;20176;-62
2024/01/10 08:21:56;;;;;;;27.27;24.83;;;2.00;9.40;;;;;;5007471;28;20441;-63
2024/01/10 08:24:22;;;;;;;27.10;24.80;;;2.00;8.70;;;;;;5018152;28;20184;-63
2024/01/10 08:26:51;;;;;;;28.30;25.70;;;1.90;8.80;;;;;;5017163;28;20435;-62
2024/01/10 08:29:21;;;;;;;26.87;24.53;;;2.10;9.00;;;;;;5018827;28;20430;-63
2024/01/10 08:31:48;;;;;;;28.30;26.10;;;2.10;8.40;;;;;;5015207;28;20479;-63
2024/01/10 08:34:13;;;;;;;29.20;26.70;;;1.80;9.10;;;;;;5040668;28;20478;-62
2024/01/10 08:36:39;;;;;;;28.53;26.07;;;1.80;9.30;;;;;;5022929;28;20458;-63
2024/01/10 08:39:06;;;;;;;28.17;25.97;;;1.90;9.20;;;;;;5021659;28;20267;-62
2024/01/10 08:41:32;;;;;;;26.83;24.63;;;1.80;8.90;;;;;;5014367;28;20172;-57
2024/01/10 08:43:58;;;;;;;27.20;25.03;;;1.80;9.20;;;;;;5032301;28;20451;-60
2024/01/10 08:46:24;;;;;;;27.70;25.40;;;1.70;9.90;;;;;;5046794;28;20465;-59
2024/01/10 08:48:50;;;;;;;28.40;26.10;;;1.40;11.10;;;;;;5037284;28;20692;-59
2024/01/10 08:51:16;;;;;;;29.50;27.20;;;1.10;11.40;;;;;;5024896;28;20977;-64
2024/01/10 08:53:43;;;;;;;28.58;25.70;;;1.10;13.10;;;;;;5027730;28;20430;-64
2024/01/10 08:56:10;;;;;;;28.05;25.88;;;1.10;14.30;;;;;;5026273;28;20179;-63
2024/01/10 08:58:36;;;;;;;29.70;26.97;;;1.00;12.00;;;;;;5024852;28;20220;-63
2024/01/10 09:01:02;;;;;;;28.73;26.40;;;1.00;12.40;;;;;;5022148;28;20962;-62
2024/01/10 09:03:28;;;;;;;30.30;27.73;;;1.20;14.20;;;;;;5047137;28;20438;-61
2024/01/10 09:05:54;;;;;;;31.30;28.50;;;1.40;11.90;;;;;;5015100;28;20643;-61
2024/01/10 09:08:19;;;;;;;29.90;27.27;;;1.50;11.00;;;;;;5032205;28;20180;-61
2024/01/10 09:10:45;;;;;;;28.57;26.00;;;1.60;10.40;;;;;;5014238;28;20412;-61
2024/01/10 09:13:10;;;;;;;29.43;27.13;;;1.70;10.40;;;;;;5013717;28;20264;-60
2024/01/10 09:15:36;;;;;;;28.63;26.40;;;1.90;10.40;;;;;;5023313;28;20182;-60
2024/01/10 09:18:02;;;;;;;30.40;27.90;;;2.00;9.60;;;;;;5027151;28;20270;-60
2024/01/10 09:20:28;;;;;;;28.80;26.30;;;1.70;10.00;;;;;;5022307;28;20208;-61
2024/01/10 09:22:54;;;;;;;28.60;26.20;;;1.60;10.30;;;;;;5013377;28;20498;-61
2024/01/10 09:25:20;;;;;;;31.10;28.50;;;1.80;10.50;;;;;;5014250;28;20181;-60
2024/01/10 09:27:46;;;;;;;30.50;27.90;;;1.90;9.60;;;;;;5014059;28;20431;-62
2024/01/10 09:30:13;;;;;;;29.07;26.47;;;2.10;9.60;;;;;;5013948;28;20550;-62
2024/01/10 09:32:39;;;;;;;29.17;26.87;;;2.20;9.80;;;;;;5016148;28;20503;-61
2024/01/10 09:35:05;;;;;;;29.47;27.00;;;2.10;9.60;;;;;;5014047;28;20535;-62
2024/01/10 09:37:31;;;;;;;30.03;27.63;;;1.90;10.00;;;;;;5013814;28;20204;-63
2024/01/10 09:39:56;;;;;;;29.60;27.00;;;2.00;10.40;;;;;;5016596;28;20423;-62
2024/01/10 09:42:25;;;;;;;29.60;27.13;;;2.10;10.70;;;;;;5027027;28;20177;-62
2024/01/10 09:44:52;;;;;;;30.20;27.70;;;1.90;10.20;;;;;;5014028;28;20236;-62
2024/01/10 09:47:20;;;;;;;30.83;28.27;;;1.70;10.40;;;;;;5013998;28;20439;-62
2024/01/10 09:49:46;;;;;;;31.53;28.87;;;1.50;11.10;;;;;;5012975;28;20498;-61
2024/01/10 09:52:24;;;;;;;28.93;26.63;;;1.30;11.60;;;;;;5015588;28;20435;-62
2024/01/10 09:54:53;;;;;;;30.37;28.03;;;1.50;11.60;;;;;;5013832;28;20443;-62
2024/01/10 09:57:20;;;;;;;32.07;29.47;;;1.70;10.50;;;;;;5027767;28;20471;-62
2024/01/10 09:59:47;;;;;;;30.50;28.00;;;1.80;10.70;;;;;;5013312;28;20427;-61
2024/01/10 10:02:16;;;;;;;30.37;27.67;;;2.20;10.80;;;;;;5013246;28;20426;-62
2024/01/10 10:04:51;;;;;;;28.60;26.30;;;2.20;10.40;;;;;;5016388;28;20426;-62
2024/01/10 10:07:16;;;;;;;29.97;27.50;;;2.10;10.70;;;;;;5028157;28;20438;-62
2024/01/10 10:09:42;;;;;;;29.23;26.87;;;2.30;10.00;;;;;;5013642;28;20424;-62
2024/01/10 10:12:08;;;;;;;30.60;27.90;;;2.40;10.20;;;;;;5013098;28;20200;-61
2024/01/10 10:14:33;;;;;;;29.97;27.00;;;2.20;10.80;;;;;;5013258;28;20189;-61
2024/01/10 10:17:16;;;;;;;29.63;27.23;;;2.40;10.50;;;;;;5023284;28;20526;-61
2024/01/10 10:19:42;;;;;;;32.20;29.53;;;2.50;10.50;;;;;;5019998;28;20555;-61
2024/01/10 10:22:09;;;;;;;32.20;29.40;;;2.40;10.50;;;;;;5034528;28;20518;-61
2024/01/10 11:53:52;;;;;;;35.07;32.07;;;3.00;11.20;;;;;;5052838;22;20513;-82
2024/01/10 11:56:18;;;;;;;34.30;31.47;;;3.20;11.10;;;;;;5036080;28;20430;-83
2024/01/10 11:59:04;;;;;;;34.50;31.60;;;3.20;11.30;;;;;;5033970;28;20885;-81
2024/01/10 12:01:31;;;;;;;32.80;29.97;;;3.40;10.90;;;;;;5050242;28;20664;-84
2024/01/10 12:03:58;;;;;;;33.23;30.47;;;3.50;11.50;;;;;;5037117;28;20437;-83
2024/01/10 12:06:36;;;;;;;33.40;30.50;;;3.10;11.30;;;;;;5052950;28;20427;-83
2024/01/10 12:09:08;;;;;;;36.40;33.23;;;3.30;11.20;;;;;;5040217;28;20490;-83
2024/01/10 12:11:41;;;;;;;35.37;32.40;;;3.40;11.20;;;;;;5040907;28;20437;-86
2024/01/10 12:14:20;;;;;;;36.07;33.10;;;3.60;10.90;;;;;;5042454;28;20435;-87
2024/01/10 12:16:45;;;;;;;35.20;32.37;;;3.80;10.50;;;;;;5025607;28;20489;-84
2024/01/10 12:19:14;;;;;;;35.93;33.00;;;3.70;10.60;;;;;;5026347;28;21029;-84
2024/01/10 12:21:40;;;;;;;36.63;33.55;;;3.70;11.00;;;;;;5022375;28;20432;-84
2024/01/10 12:24:27;;;;;;;36.43;33.43;;;3.70;10.90;;;;;;5023661;28;20200;-84
2024/01/10 12:27:00;;;;;;;33.90;31.10;;;3.50;11.50;;;;;;5049375;28;20228;-83
2024/01/10 12:29:26;;;;;;;38.03;34.83;;;3.60;11.60;;;;;;5029159;28;20423;-84
2024/01/10 12:31:53;;;;;;;36.03;33.10;;;3.60;11.60;;;;;;5051495;28;20415;-86
2024/01/10 12:34:32;;;;;;;35.27;32.17;;;3.60;11.60;;;;;;5025278;28;20451;-85
2024/01/10 12:37:00;;;;;;;34.80;31.73;;;3.60;11.60;;;;;;5040175;28;20467;-86
2024/01/10 12:39:31;;;;;;;34.13;31.33;;;3.70;11.20;;;;;;5008403;28;20447;-85
2024/01/10 12:41:58;;;;;;;35.47;32.47;;;4.00;11.50;;;;;;5022738;28;20420;-83
2024/01/10 12:44:33;;;;;;;34.70;31.77;;;3.70;11.10;;;;;;5022048;28;20414;-83
2024/01/10 12:47:08;;;;;;;35.23;32.30;;;3.80;10.90;;;;;;5027156;28;20461;-83
2024/01/10 12:50:30;;;;;;;37.73;34.40;;;3.70;11.60;;;;;;5009327;28;20447;-83
2024/01/10 12:53:22;;;;;;;35.47;32.17;;;3.70;11.00;;;;;;4968389;28;20441;-82
2024/01/10 12:55:48;;;;;;;36.60;32.97;;;3.70;11.20;;;;;;5004776;28;20443;-83
2024/01/10 12:58:14;;;;;;;38.70;35.40;;;3.50;11.60;;;;;;5020721;28;20470;-82
2024/01/10 13:00:40;;;;;;;36.73;33.50;;;3.40;11.60;;;;;;5042304;28;20866;-81
2024/01/10 13:03:05;;;;;;;33.53;30.90;;;3.50;12.10;;;;;;5025364;28;20443;-81
2024/01/10 13:05:31;;;;;;;38.10;34.40;;;3.80;11.80;;;;;;5027486;28;20275;-79
2024/01/10 13:07:58;;;;;;;36.50;33.40;;;3.80;11.50;;;;;;5021127;28;20184;-81
2024/01/10 13:10:23;;;;;;;36.27;33.07;;;3.90;11.80;;;;;;5040019;28;20443;-82
2024/01/10 13:12:49;;;;;;;35.10;32.10;;;3.80;11.40;;;;;;5036712;28;20419;-82
2024/01/10 13:15:15;;;;;;;36.70;33.50;;;3.70;11.70;;;;;;5019352;28;20271;-83
2024/01/10 13:17:51;;;;;;;33.17;30.43;;;3.80;11.70;;;;;;5018998;28;20459;-83
2024/01/10 13:20:16;;;;;;;35.23;32.23;;;3.90;11.80;;;;;;5019886;28;20180;-80
2024/01/10 13:22:43;;;;;;;35.27;32.33;;;3.90;11.80;;;;;;5020228;28;20919;-81
2024/01/10 13:25:09;;;;;;;32.57;29.97;;;4.20;11.00;;;;;;5030702;28;20161;-77
2024/01/10 13:27:34;;;;;;;35.53;32.40;;;4.40;10.50;;;;;;5040676;28;20418;-81
2024/01/10 13:30:00;;;;;;;35.80;32.70;;;4.60;10.00;;;;;;5040408;28;20562;-81
2024/01/10 13:32:25;;;;;;;33.13;30.23;;;4.80;9.70;;;;;;5024784;28;20192;-79
2024/01/10 13:34:53;;;;;;;32.70;30.00;;;4.80;9.70;;;;;;5026807;28;20597;-79
2024/01/10 13:37:35;;;;;;;33.33;30.57;;;5.00;9.80;;;;;;4994837;28;20244;-78
2024/01/10 13:40:04;;;;;;;33.50;30.57;;;4.90;9.60;;;;;;5010854;28;20459;-81
2024/01/10 13:42:31;;;;;;;33.10;30.40;;;4.70;10.10;;;;;;5009672;28;20416;-79
2024/01/10 13:44:56;;;;;;;33.40;30.60;;;4.70;9.80;;;;;;5002844;28;20426;-79
2024/01/10 13:47:25;;;;;;;34.00;31.10;;;4.70;10.20;;;;;;4998600;28;20177;-80
2024/01/10 13:49:51;;;;;;;33.67;30.87;;;4.70;10.20;;;;;;4997620;28;20193;-80
2024/01/10 13:52:17;;;;;;;33.70;30.90;;;4.90;9.90;;;;;;5017939;28;20444;-80
2024/01/10 13:54:58;;;;;;;33.43;30.40;;;5.00;9.50;;;;;;5001647;28;20412;-79
2024/01/10 13:57:37;;;;;;;31.67;29.10;;;5.10;9.50;;;;;;5001168;28;20517;-80
2024/01/10 14:00:21;;;;;;;32.50;29.80;;;5.20;9.10;;;;;;5002429;28;20424;-79
2024/01/10 14:02:48;;;;;;;32.57;29.77;;;5.10;9.60;;;;;;5001311;28;20419;-79
2024/01/10 14:05:14;;;;;;;31.97;29.10;;;4.90;9.50;;;;;;5020063;28;20416;-79
2024/01/10 14:07:44;;;;;;;35.27;32.23;;;4.90;10.30;;;;;;5002069;28;20416;-79
2024/01/10 14:10:10;;;;;;;33.40;30.60;;;4.90;10.30;;;;;;5020822;28;20496;-79
2024/01/10 14:12:38;;;;;;;33.77;30.93;;;4.90;10.00;;;;;;5027250;28;20428;-79